sensor_id;sensor_type;location;lat;lon;timestamp;temperature;humidity
75088;HTU21D;63664;44.868;40.600;2023-03-04T00:00:42;5.40;80.46
75088;HTU21D;63664;44.868;40.600;2023-03-04T00:03:12;5.37;80.44
75088;HTU21D;63664;44.868;40.600;2023-03-04T00:05:44;5.33;80.40
75088;HTU21D;63664;44.868;40.600;2023-03-04T00:08:14;5.32;80.43
75088;HTU21D;63664;44.868;40.600;2023-03-04T00:10:43;5.27;80.49
75088;HTU21D;63664;44.868;40.600;2023-03-04T00:13:10;5.23;80.59
75088;HTU21D;63664;44.868;40.600;2023-03-04T00:15:38;5.19;80.65
75088;HTU21D;63664;44.868;40.600;2023-03-04T00:18:05;5.15;80.72
75088;HTU21D;63664;44.868;40.600;2023-03-04T00:20:31;5.12;80.76
75088;HTU21D;63664;44.868;40.600;2023-03-04T00:22:59;5.05;80.85
75088;HTU21D;63664;44.868;40.600;2023-03-04T00:25:26;5.00;81.01
75088;HTU21D;63664;44.868;40.600;2023-03-04T00:27:54;4.95;81.09
75088;HTU21D;63664;44.868;40.600;2023-03-04T00:30:20;4.91;81.30
75088;HTU21D;63664;44.868;40.600;2023-03-04T00:32:49;4.86;81.43
75088;HTU21D;63664;44.868;40.600;2023-03-04T00:35:16;4.81;81.51
75088;HTU21D;63664;44.868;40.600;2023-03-04T00:37:42;4.74;81.85
75088;HTU21D;63664;44.868;40.600;2023-03-04T00:40:12;4.66;81.93
75088;HTU21D;63664;44.868;40.600;2023-03-04T00:42:39;4.62;82.07
75088;HTU21D;63664;44.868;40.600;2023-03-04T00:45:08;4.59;82.03
75088;HTU21D;63664;44.868;40.600;2023-03-04T00:47:39;4.54;82.05
75088;HTU21D;63664;44.868;40.600;2023-03-04T00:50:08;4.51;82.14
75088;HTU21D;63664;44.868;40.600;2023-03-04T00:52:37;4.51;82.27
75088;HTU21D;63664;44.868;40.600;2023-03-04T00:55:04;4.49;82.27
75088;HTU21D;63664;44.868;40.600;2023-03-04T00:57:30;4.48;82.36
75088;HTU21D;63664;44.868;40.600;2023-03-04T00:59:59;4.49;82.41
75088;HTU21D;63664;44.868;40.600;2023-03-04T01:02:27;4.48;82.43
75088;HTU21D;63664;44.868;40.600;2023-03-04T01:04:53;4.48;82.51
75088;HTU21D;63664;44.868;40.600;2023-03-04T01:07:21;4.47;82.61
75088;HTU21D;63664;44.868;40.600;2023-03-04T01:09:47;4.46;82.68
75088;HTU21D;63664;44.868;40.600;2023-03-04T01:12:17;4.46;82.69
75088;HTU21D;63664;44.868;40.600;2023-03-04T01:14:46;4.42;82.45
75088;HTU21D;63664;44.868;40.600;2023-03-04T01:17:16;4.42;82.66
75088;HTU21D;63664;44.868;40.600;2023-03-04T01:19:45;4.38;82.83
75088;HTU21D;63664;44.868;40.600;2023-03-04T01:22:16;4.36;82.97
75088;HTU21D;63664;44.868;40.600;2023-03-04T01:24:44;4.35;83.07
75088;HTU21D;63664;44.868;40.600;2023-03-04T01:27:11;4.33;83.17
75088;HTU21D;63664;44.868;40.600;2023-03-04T01:29:40;4.31;83.31
75088;HTU21D;63664;44.868;40.600;2023-03-04T01:32:06;4.28;83.45
75088;HTU21D;63664;44.868;40.600;2023-03-04T01:34:34;4.28;83.58
75088;HTU21D;63664;44.868;40.600;2023-03-04T01:37:03;4.28;83.71
75088;HTU21D;63664;44.868;40.600;2023-03-04T01:39:29;4.24;83.80
75088;HTU21D;63664;44.868;40.600;2023-03-04T01:41:56;4.24;83.90
75088;HTU21D;63664;44.868;40.600;2023-03-04T01:44:22;4.22;83.97
75088;HTU21D;63664;44.868;40.600;2023-03-04T01:46:53;4.22;84.11
75088;HTU21D;63664;44.868;40.600;2023-03-04T01:49:23;4.22;84.06
75088;HTU21D;63664;44.868;40.600;2023-03-04T01:51:52;4.19;84.16
75088;HTU21D;63664;44.868;40.600;2023-03-04T01:54:21;4.17;84.23
75088;HTU21D;63664;44.868;40.600;2023-03-04T01:56:49;4.15;84.35
75088;HTU21D;63664;44.868;40.600;2023-03-04T01:59:21;4.14;84.48
75088;HTU21D;63664;44.868;40.600;2023-03-04T02:01:55;4.15;84.48
75088;HTU21D;63664;44.868;40.600;2023-03-04T02:04:27;4.13;84.62
75088;HTU21D;63664;44.868;40.600;2023-03-04T02:06:55;4.14;84.71
75088;HTU21D;63664;44.868;40.600;2023-03-04T02:09:26;4.13;84.79
75088;HTU21D;63664;44.868;40.600;2023-03-04T02:11:56;4.09;84.88
75088;HTU21D;63664;44.868;40.600;2023-03-04T02:14:24;4.07;85.00
75088;HTU21D;63664;44.868;40.600;2023-03-04T02:16:51;4.06;85.09
75088;HTU21D;63664;44.868;40.600;2023-03-04T02:20:04;4.05;85.25
75088;HTU21D;63664;44.868;40.600;2023-03-04T02:22:21;4.02;85.16
75088;HTU21D;63664;44.868;40.600;2023-03-04T02:24:59;3.99;85.35
75088;HTU21D;63664;44.868;40.600;2023-03-04T02:27:31;3.95;85.35
75088;HTU21D;63664;44.868;40.600;2023-03-04T02:29:58;3.95;85.47
75088;HTU21D;63664;44.868;40.600;2023-03-04T02:32:25;3.90;85.59
75088;HTU21D;63664;44.868;40.600;2023-03-04T02:34:53;3.89;85.68
75088;HTU21D;63664;44.868;40.600;2023-03-04T02:37:24;3.88;85.78
75088;HTU21D;63664;44.868;40.600;2023-03-04T02:39:55;3.88;85.84
75088;HTU21D;63664;44.868;40.600;2023-03-04T02:42:21;3.86;85.91
75088;HTU21D;63664;44.868;40.600;2023-03-04T02:44:47;3.85;85.99
75088;HTU21D;63664;44.868;40.600;2023-03-04T02:47:19;3.83;86.03
75088;HTU21D;63664;44.868;40.600;2023-03-04T02:49:50;3.82;86.08
75088;HTU21D;63664;44.868;40.600;2023-03-04T02:52:25;3.80;86.13
75088;HTU21D;63664;44.868;40.600;2023-03-04T02:54:56;3.80;86.12
75088;HTU21D;63664;44.868;40.600;2023-03-04T02:57:24;3.78;86.22
75088;HTU21D;63664;44.868;40.600;2023-03-04T02:59:53;3.77;86.26
75088;HTU21D;63664;44.868;40.600;2023-03-04T03:02:29;3.77;86.31
75088;HTU21D;63664;44.868;40.600;2023-03-04T03:04:58;3.77;86.36
75088;HTU21D;63664;44.868;40.600;2023-03-04T03:07:28;3.78;86.41
75088;HTU21D;63664;44.868;40.600;2023-03-04T03:09:56;3.80;86.41
75088;HTU21D;63664;44.868;40.600;2023-03-04T03:12:22;3.79;86.45
75088;HTU21D;63664;44.868;40.600;2023-03-04T03:14:48;3.82;86.52
75088;HTU21D;63664;44.868;40.600;2023-03-04T03:17:21;3.83;86.51
75088;HTU21D;63664;44.868;40.600;2023-03-04T03:19:47;3.82;86.54
75088;HTU21D;63664;44.868;40.600;2023-03-04T03:22:15;3.82;86.62
75088;HTU21D;63664;44.868;40.600;2023-03-04T03:24:41;3.82;86.64
75088;HTU21D;63664;44.868;40.600;2023-03-04T03:27:10;3.82;86.68
75088;HTU21D;63664;44.868;40.600;2023-03-04T03:29:41;3.80;86.71
75088;HTU21D;63664;44.868;40.600;2023-03-04T03:32:12;3.79;86.77
75088;HTU21D;63664;44.868;40.600;2023-03-04T03:34:39;3.79;86.81
75088;HTU21D;63664;44.868;40.600;2023-03-04T03:37:08;3.82;86.85
75088;HTU21D;63664;44.868;40.600;2023-03-04T03:39:35;3.79;86.85
75088;HTU21D;63664;44.868;40.600;2023-03-04T03:42:03;3.78;86.91
75088;HTU21D;63664;44.868;40.600;2023-03-04T03:44:29;3.77;86.96
75088;HTU21D;63664;44.868;40.600;2023-03-04T03:46:56;3.78;87.00
75088;HTU21D;63664;44.868;40.600;2023-03-04T03:49:24;3.80;87.04
75088;HTU21D;63664;44.868;40.600;2023-03-04T03:51:51;3.80;87.05
75088;HTU21D;63664;44.868;40.600;2023-03-04T03:54:19;3.82;87.06
75088;HTU21D;63664;44.868;40.600;2023-03-04T03:56:49;3.82;87.08
75088;HTU21D;63664;44.868;40.600;2023-03-04T03:59:15;3.83;87.10
75088;HTU21D;63664;44.868;40.600;2023-03-04T04:01:44;3.80;87.12
75088;HTU21D;63664;44.868;40.600;2023-03-04T04:04:10;3.79;87.19
75088;HTU21D;63664;44.868;40.600;2023-03-04T04:06:36;3.79;87.26
75088;HTU21D;63664;44.868;40.600;2023-03-04T04:09:03;3.80;87.32
75088;HTU21D;63664;44.868;40.600;2023-03-04T04:11:32;3.78;87.35
75088;HTU21D;63664;44.868;40.600;2023-03-04T04:13:58;3.78;87.40
75088;HTU21D;63664;44.868;40.600;2023-03-04T04:16:29;3.75;87.40
75088;HTU21D;63664;44.868;40.600;2023-03-04T04:18:55;3.75;87.47
75088;HTU21D;63664;44.868;40.600;2023-03-04T04:21:22;3.75;87.47
75088;HTU21D;63664;44.868;40.600;2023-03-04T04:23:50;3.74;87.49
75088;HTU21D;63664;44.868;40.600;2023-03-04T04:26:16;3.75;87.51
75088;HTU21D;63664;44.868;40.600;2023-03-04T04:28:43;3.73;87.53
75088;HTU21D;63664;44.868;40.600;2023-03-04T04:31:09;3.75;87.54
75088;HTU21D;63664;44.868;40.600;2023-03-04T04:33:38;3.77;87.54
75088;HTU21D;63664;44.868;40.600;2023-03-04T04:36:04;3.77;87.52
75088;HTU21D;63664;44.868;40.600;2023-03-04T04:38:31;3.77;87.54
75088;HTU21D;63664;44.868;40.600;2023-03-04T04:40:59;3.79;87.57
75088;HTU21D;63664;44.868;40.600;2023-03-04T04:43:28;3.79;87.54
75088;HTU21D;63664;44.868;40.600;2023-03-04T04:45:59;3.80;87.56
75088;HTU21D;63664;44.868;40.600;2023-03-04T04:48:27;3.84;87.56
75088;HTU21D;63664;44.868;40.600;2023-03-04T04:50:56;3.85;87.54
75088;HTU21D;63664;44.868;40.600;2023-03-04T04:53:25;3.87;87.54
75088;HTU21D;63664;44.868;40.600;2023-03-04T04:55:51;3.92;87.51
75088;HTU21D;63664;44.868;40.600;2023-03-04T04:58:20;3.93;87.51
75088;HTU21D;63664;44.868;40.600;2023-03-04T05:00:51;3.94;87.52
75088;HTU21D;63664;44.868;40.600;2023-03-04T05:03:20;3.94;87.57
75088;HTU21D;63664;44.868;40.600;2023-03-04T05:05:47;3.97;87.61
75088;HTU21D;63664;44.868;40.600;2023-03-04T05:08:14;3.99;87.67
75088;HTU21D;63664;44.868;40.600;2023-03-04T05:10:40;4.00;87.69
75088;HTU21D;63664;44.868;40.600;2023-03-04T05:13:06;4.04;87.68
75088;HTU21D;63664;44.868;40.600;2023-03-04T05:15:32;4.07;87.69
75088;HTU21D;63664;44.868;40.600;2023-03-04T05:17:58;4.06;87.70
75088;HTU21D;63664;44.868;40.600;2023-03-04T05:20:28;4.09;87.74
75088;HTU21D;63664;44.868;40.600;2023-03-04T05:22:56;4.12;87.75
75088;HTU21D;63664;44.868;40.600;2023-03-04T05:25:26;4.13;87.77
75088;HTU21D;63664;44.868;40.600;2023-03-04T05:27:52;4.07;87.79
75088;HTU21D;63664;44.868;40.600;2023-03-04T05:30:18;4.02;87.81
75088;HTU21D;63664;44.868;40.600;2023-03-04T05:32:45;3.97;87.88
75088;HTU21D;63664;44.868;40.600;2023-03-04T05:35:11;3.92;87.89
75088;HTU21D;63664;44.868;40.600;2023-03-04T05:37:37;3.89;87.94
75088;HTU21D;63664;44.868;40.600;2023-03-04T05:40:04;3.87;87.92
75088;HTU21D;63664;44.868;40.600;2023-03-04T05:42:30;3.86;87.89
75088;HTU21D;63664;44.868;40.600;2023-03-04T05:44:57;3.86;87.88
75088;HTU21D;63664;44.868;40.600;2023-03-04T05:47:23;3.88;87.88
75088;HTU21D;63664;44.868;40.600;2023-03-04T05:49:51;3.88;87.84
75088;HTU21D;63664;44.868;40.600;2023-03-04T05:52:19;3.88;87.82
75088;HTU21D;63664;44.868;40.600;2023-03-04T05:54:45;3.87;87.82
75088;HTU21D;63664;44.868;40.600;2023-03-04T05:57:11;3.88;87.82
75088;HTU21D;63664;44.868;40.600;2023-03-04T05:59:40;3.88;87.80
75088;HTU21D;63664;44.868;40.600;2023-03-04T06:02:09;3.87;87.81
75088;HTU21D;63664;44.868;40.600;2023-03-04T06:04:37;3.84;87.81
75088;HTU21D;63664;44.868;40.600;2023-03-04T06:07:03;3.82;87.85
75088;HTU21D;63664;44.868;40.600;2023-03-04T06:09:32;3.82;87.89
75088;HTU21D;63664;44.868;40.600;2023-03-04T06:11:58;3.82;87.89
75088;HTU21D;63664;44.868;40.600;2023-03-04T06:14:27;3.82;87.96
75088;HTU21D;63664;44.868;40.600;2023-03-04T06:16:56;3.82;88.03
75088;HTU21D;63664;44.868;40.600;2023-03-04T06:19:25;3.77;88.07
75088;HTU21D;63664;44.868;40.600;2023-03-04T06:21:54;3.78;88.15
75088;HTU21D;63664;44.868;40.600;2023-03-04T06:24:20;3.78;88.15
75088;HTU21D;63664;44.868;40.600;2023-03-04T06:26:46;3.76;88.14
75088;HTU21D;63664;44.868;40.600;2023-03-04T06:29:16;3.72;88.25
75088;HTU21D;63664;44.868;40.600;2023-03-04T06:31:42;3.67;88.39
75088;HTU21D;63664;44.868;40.600;2023-03-04T06:34:08;3.65;88.46
75088;HTU21D;63664;44.868;40.600;2023-03-04T06:36:34;3.64;88.54
75088;HTU21D;63664;44.868;40.600;2023-03-04T06:39:03;3.64;88.60
75088;HTU21D;63664;44.868;40.600;2023-03-04T06:41:30;3.61;88.66
75088;HTU21D;63664;44.868;40.600;2023-03-04T06:43:56;3.59;88.73
75088;HTU21D;63664;44.868;40.600;2023-03-04T06:46:23;3.60;88.75
75088;HTU21D;63664;44.868;40.600;2023-03-04T06:48:55;3.60;88.81
75088;HTU21D;63664;44.868;40.600;2023-03-04T06:51:24;3.62;88.76
75088;HTU21D;63664;44.868;40.600;2023-03-04T06:53:53;3.62;88.76
75088;HTU21D;63664;44.868;40.600;2023-03-04T06:56:21;3.63;88.81
75088;HTU21D;63664;44.868;40.600;2023-03-04T06:58:48;3.59;88.91
75088;HTU21D;63664;44.868;40.600;2023-03-04T07:01:18;3.59;88.99
75088;HTU21D;63664;44.868;40.600;2023-03-04T07:03:49;3.59;89.05
75088;HTU21D;63664;44.868;40.600;2023-03-04T07:06:17;3.58;89.24
75088;HTU21D;63664;44.868;40.600;2023-03-04T07:08:49;3.60;89.15
75088;HTU21D;63664;44.868;40.600;2023-03-04T07:11:19;3.61;89.15
75088;HTU21D;63664;44.868;40.600;2023-03-04T07:13:47;3.64;89.15
75088;HTU21D;63664;44.868;40.600;2023-03-04T07:16:20;3.64;89.18
75088;HTU21D;63664;44.868;40.600;2023-03-04T07:18:50;3.64;89.23
75088;HTU21D;63664;44.868;40.600;2023-03-04T07:21:21;3.67;89.25
75088;HTU21D;63664;44.868;40.600;2023-03-04T07:23:51;3.70;89.29
75088;HTU21D;63664;44.868;40.600;2023-03-04T07:26:20;3.73;89.29
75088;HTU21D;63664;44.868;40.600;2023-03-04T07:28:47;3.75;89.31
75088;HTU21D;63664;44.868;40.600;2023-03-04T07:31:33;3.76;89.40
75088;HTU21D;63664;44.868;40.600;2023-03-04T07:34:04;3.77;89.40
75088;HTU21D;63664;44.868;40.600;2023-03-04T07:36:35;3.76;89.41
75088;HTU21D;63664;44.868;40.600;2023-03-04T07:39:02;3.78;89.44
75088;HTU21D;63664;44.868;40.600;2023-03-04T07:41:29;3.82;89.49
75088;HTU21D;63664;44.868;40.600;2023-03-04T07:43:58;3.84;89.52
75088;HTU21D;63664;44.868;40.600;2023-03-04T07:46:30;3.86;89.56
75088;HTU21D;63664;44.868;40.600;2023-03-04T07:48:59;3.85;89.62
75088;HTU21D;63664;44.868;40.600;2023-03-04T07:51:28;3.85;89.68
75088;HTU21D;63664;44.868;40.600;2023-03-04T07:54:00;3.85;89.74
75088;HTU21D;63664;44.868;40.600;2023-03-04T07:56:29;3.85;89.82
75088;HTU21D;63664;44.868;40.600;2023-03-04T07:59:02;3.86;89.84
75088;HTU21D;63664;44.868;40.600;2023-03-04T08:01:31;3.87;89.95
75088;HTU21D;63664;44.868;40.600;2023-03-04T08:03:58;3.91;89.89
75088;HTU21D;63664;44.868;40.600;2023-03-04T08:06:29;3.91;89.89
75088;HTU21D;63664;44.868;40.600;2023-03-04T08:09:03;3.94;89.92
75088;HTU21D;63664;44.868;40.600;2023-03-04T08:11:33;3.95;90.05
75088;HTU21D;63664;44.868;40.600;2023-03-04T08:14:00;3.98;89.94
75088;HTU21D;63664;44.868;40.600;2023-03-04T08:16:26;3.99;89.97
75088;HTU21D;63664;44.868;40.600;2023-03-04T08:18:55;4.04;90.03
75088;HTU21D;63664;44.868;40.600;2023-03-04T08:21:30;4.06;90.08
75088;HTU21D;63664;44.868;40.600;2023-03-04T08:23:58;4.12;90.05
75088;HTU21D;63664;44.868;40.600;2023-03-04T08:26:32;4.17;90.07
75088;HTU21D;63664;44.868;40.600;2023-03-04T08:29:05;4.20;90.09
75088;HTU21D;63664;44.868;40.600;2023-03-04T08:31:32;4.23;90.21
75088;HTU21D;63664;44.868;40.600;2023-03-04T08:34:02;4.26;90.15
75088;HTU21D;63664;44.868;40.600;2023-03-04T08:36:32;4.34;90.12
75088;HTU21D;63664;44.868;40.600;2023-03-04T08:39:02;4.41;90.12
75088;HTU21D;63664;44.868;40.600;2023-03-04T08:41:29;4.48;90.25
75088;HTU21D;63664;44.868;40.600;2023-03-04T08:43:55;4.54;90.08
75088;HTU21D;63664;44.868;40.600;2023-03-04T08:46:24;4.59;90.08
75088;HTU21D;63664;44.868;40.600;2023-03-04T08:48:50;4.62;90.11
75088;HTU21D;63664;44.868;40.600;2023-03-04T08:51:17;4.68;90.15
75088;HTU21D;63664;44.868;40.600;2023-03-04T08:53:44;4.73;90.13
75088;HTU21D;63664;44.868;40.600;2023-03-04T08:56:13;4.78;90.17
75088;HTU21D;63664;44.868;40.600;2023-03-04T08:58:40;4.83;90.19
75088;HTU21D;63664;44.868;40.600;2023-03-04T09:01:09;4.83;90.36
75088;HTU21D;63664;44.868;40.600;2023-03-04T09:03:36;4.84;90.47
75088;HTU21D;63664;44.868;40.600;2023-03-04T09:06:03;4.86;90.47
75088;HTU21D;63664;44.868;40.600;2023-03-04T09:08:30;4.88;90.59
75088;HTU21D;63664;44.868;40.600;2023-03-04T09:10:59;4.89;90.58
75088;HTU21D;63664;44.868;40.600;2023-03-04T09:13:29;4.92;90.70
75088;HTU21D;63664;44.868;40.600;2023-03-04T09:15:59;4.96;90.60
75088;HTU21D;63664;44.868;40.600;2023-03-04T09:18:26;5.00;90.73
75088;HTU21D;63664;44.868;40.600;2023-03-04T09:20:56;5.04;90.80
75088;HTU21D;63664;44.868;40.600;2023-03-04T09:23:22;5.08;90.69
75088;HTU21D;63664;44.868;40.600;2023-03-04T09:25:51;5.16;90.66
75088;HTU21D;63664;44.868;40.600;2023-03-04T09:28:22;5.23;90.63
75088;HTU21D;63664;44.868;40.600;2023-03-04T09:30:51;5.25;90.58
75088;HTU21D;63664;44.868;40.600;2023-03-04T09:33:17;5.31;90.79
75088;HTU21D;63664;44.868;40.600;2023-03-04T09:35:43;5.37;90.77
75088;HTU21D;63664;44.868;40.600;2023-03-04T09:38:10;5.50;90.66
75088;HTU21D;63664;44.868;40.600;2023-03-04T09:40:47;5.64;90.59
75088;HTU21D;63664;44.868;40.600;2023-03-04T09:43:25;5.76;90.35
75088;HTU21D;63664;44.868;40.600;2023-03-04T09:46:02;5.89;90.20
75088;HTU21D;63664;44.868;40.600;2023-03-04T09:48:44;5.93;90.24
75088;HTU21D;63664;44.868;40.600;2023-03-04T09:51:21;5.93;90.24
75088;HTU21D;63664;44.868;40.600;2023-03-04T10:05:25;6.08;90.50
75088;HTU21D;63664;44.868;40.600;2023-03-04T10:07:58;6.13;90.61
75088;HTU21D;63664;44.868;40.600;2023-03-04T10:10:37;6.21;90.42
75088;HTU21D;63664;44.868;40.600;2023-03-04T10:13:13;6.26;90.46
75088;HTU21D;63664;44.868;40.600;2023-03-04T10:15:45;6.29;90.49
75088;HTU21D;63664;44.868;40.600;2023-03-04T10:23:25;6.40;90.51
75088;HTU21D;63664;44.868;40.600;2023-03-04T10:25:55;6.48;90.39
75088;HTU21D;63664;44.868;40.600;2023-03-04T10:28:34;6.55;90.35
75088;HTU21D;63664;44.868;40.600;2023-03-04T10:31:18;6.66;90.13
75088;HTU21D;63664;44.868;40.600;2023-03-04T10:33:52;6.79;89.90
75088;HTU21D;63664;44.868;40.600;2023-03-04T10:39:07;6.95;89.70
75088;HTU21D;63664;44.868;40.600;2023-03-04T10:41:40;7.00;89.71
75088;HTU21D;63664;44.868;40.600;2023-03-04T10:46:41;7.12;89.64
75088;HTU21D;63664;44.868;40.600;2023-03-04T10:49:12;7.25;89.53
75088;HTU21D;63664;44.868;40.600;2023-03-04T10:51:52;7.35;89.39
75088;HTU21D;63664;44.868;40.600;2023-03-04T11:02:19;7.73;89.07
75088;HTU21D;63664;44.868;40.600;2023-03-04T11:07:57;7.83;89.05
75088;HTU21D;63664;44.868;40.600;2023-03-04T11:10:26;7.84;89.14
75088;HTU21D;63664;44.868;40.600;2023-03-04T11:15:55;7.88;89.19
75088;HTU21D;63664;44.868;40.600;2023-03-04T11:21:04;7.89;89.18
75088;HTU21D;63664;44.868;40.600;2023-03-04T11:26:54;7.91;89.08
75088;HTU21D;63664;44.868;40.600;2023-03-04T11:29:27;7.88;89.18
75088;HTU21D;63664;44.868;40.600;2023-03-04T11:35:03;7.88;89.25
75088;HTU21D;63664;44.868;40.600;2023-03-04T11:37:35;7.87;89.18
75088;HTU21D;63664;44.868;40.600;2023-03-04T11:40:13;7.87;89.28
75088;HTU21D;63664;44.868;40.600;2023-03-04T11:42:53;7.88;89.28
75088;HTU21D;63664;44.868;40.600;2023-03-04T11:51:11;7.91;89.32
75088;HTU21D;63664;44.868;40.600;2023-03-04T11:56:44;7.96;89.29
75088;HTU21D;63664;44.868;40.600;2023-03-04T12:02:56;8.24;88.83
75088;HTU21D;63664;44.868;40.600;2023-03-04T12:05:10;8.31;88.71
75088;HTU21D;63664;44.868;40.600;2023-03-04T12:10:53;8.46;88.54
75088;HTU21D;63664;44.868;40.600;2023-03-04T12:13:51;8.52;88.47
75088;HTU21D;63664;44.868;40.600;2023-03-04T12:16:34;8.53;88.40
75088;HTU21D;63664;44.868;40.600;2023-03-04T12:27:41;8.58;88.08
75088;HTU21D;63664;44.868;40.600;2023-03-04T12:33:32;8.62;87.77
75088;HTU21D;63664;44.868;40.600;2023-03-04T12:36:06;8.63;87.67
75088;HTU21D;63664;44.868;40.600;2023-03-04T12:48:01;8.61;87.14
75088;HTU21D;63664;44.868;40.600;2023-03-04T12:53:29;8.59;86.94
75088;HTU21D;63664;44.868;40.600;2023-03-04T12:55:59;8.60;86.93
75088;HTU21D;63664;44.868;40.600;2023-03-04T12:58:29;8.56;86.80
75088;HTU21D;63664;44.868;40.600;2023-03-04T13:04:06;8.59;86.63
75088;HTU21D;63664;44.868;40.600;2023-03-04T13:09:29;8.57;86.47
75088;HTU21D;63664;44.868;40.600;2023-03-04T13:12:18;8.59;86.41
75088;HTU21D;63664;44.868;40.600;2023-03-04T13:20:19;8.47;86.24
75088;HTU21D;63664;44.868;40.600;2023-03-04T13:22:47;8.47;86.31
75088;HTU21D;63664;44.868;40.600;2023-03-04T13:25:31;8.51;86.18
75088;HTU21D;63664;44.868;40.600;2023-03-04T13:35:57;8.68;85.68
75088;HTU21D;63664;44.868;40.600;2023-03-04T13:43:48;8.76;85.41
75088;HTU21D;63664;44.868;40.600;2023-03-04T13:51:28;8.81;85.20
75088;HTU21D;63664;44.868;40.600;2023-03-04T13:56:38;8.83;85.09
75088;HTU21D;63664;44.868;40.600;2023-03-04T13:59:10;8.83;84.88
75088;HTU21D;63664;44.868;40.600;2023-03-04T14:04:18;8.82;84.82
75088;HTU21D;63664;44.868;40.600;2023-03-04T14:06:49;8.85;84.79
75088;HTU21D;63664;44.868;40.600;2023-03-04T14:09:26;8.86;84.72
75088;HTU21D;63664;44.868;40.600;2023-03-04T14:11:53;8.89;84.58
75088;HTU21D;63664;44.868;40.600;2023-03-04T14:14:28;8.86;84.49
75088;HTU21D;63664;44.868;40.600;2023-03-04T14:17:03;8.83;84.55
75088;HTU21D;63664;44.868;40.600;2023-03-04T14:19:47;8.80;84.48
75088;HTU21D;63664;44.868;40.600;2023-03-04T14:22:25;8.75;84.39
75088;HTU21D;63664;44.868;40.600;2023-03-04T14:25:04;8.67;84.23
75088;HTU21D;63664;44.868;40.600;2023-03-04T14:27:33;8.61;84.19
75088;HTU21D;63664;44.868;40.600;2023-03-04T14:30:03;8.55;84.31
75088;HTU21D;63664;44.868;40.600;2023-03-04T14:32:32;8.49;84.26
75088;HTU21D;63664;44.868;40.600;2023-03-04T14:35:04;8.42;84.32
75088;HTU21D;63664;44.868;40.600;2023-03-04T14:37:49;8.34;84.33
75088;HTU21D;63664;44.868;40.600;2023-03-04T14:40:25;8.30;84.35
75088;HTU21D;63664;44.868;40.600;2023-03-04T14:43:02;8.20;84.29
75088;HTU21D;63664;44.868;40.600;2023-03-04T14:45:32;8.16;84.39
75088;HTU21D;63664;44.868;40.600;2023-03-04T14:48:04;8.12;84.42
75088;HTU21D;63664;44.868;40.600;2023-03-04T14:50:32;8.06;84.46
75088;HTU21D;63664;44.868;40.600;2023-03-04T14:53:17;8.00;84.51
75088;HTU21D;63664;44.868;40.600;2023-03-04T14:56:06;7.93;84.48
75088;HTU21D;63664;44.868;40.600;2023-03-04T14:58:37;7.86;84.55
75088;HTU21D;63664;44.868;40.600;2023-03-04T15:01:28;7.82;84.64
75088;HTU21D;63664;44.868;40.600;2023-03-04T15:04:05;7.76;84.65
75088;HTU21D;63664;44.868;40.600;2023-03-04T15:06:49;7.70;84.69
75088;HTU21D;63664;44.868;40.600;2023-03-04T15:09:22;7.65;84.72
75088;HTU21D;63664;44.868;40.600;2023-03-04T15:12:00;7.60;84.81
75088;HTU21D;63664;44.868;40.600;2023-03-04T15:20:01;7.43;84.93
75088;HTU21D;63664;44.868;40.600;2023-03-04T15:22:35;7.38;85.01
75088;HTU21D;63664;44.868;40.600;2023-03-04T15:25:02;7.34;85.05
75088;HTU21D;63664;44.868;40.600;2023-03-04T15:27:32;7.32;85.09
75088;HTU21D;63664;44.868;40.600;2023-03-04T15:29:59;7.30;85.11
75088;HTU21D;63664;44.868;40.600;2023-03-04T15:32:28;7.28;85.17
75088;HTU21D;63664;44.868;40.600;2023-03-04T15:34:57;7.25;85.19
75088;HTU21D;63664;44.868;40.600;2023-03-04T15:37:28;7.24;85.23
75088;HTU21D;63664;44.868;40.600;2023-03-04T15:39:55;7.22;85.22
75088;HTU21D;63664;44.868;40.600;2023-03-04T15:42:25;7.19;85.27
75088;HTU21D;63664;44.868;40.600;2023-03-04T15:44:53;7.17;85.29
75088;HTU21D;63664;44.868;40.600;2023-03-04T15:47:19;7.16;85.32
75088;HTU21D;63664;44.868;40.600;2023-03-04T15:49:47;7.15;85.35
75088;HTU21D;63664;44.868;40.600;2023-03-04T15:52:16;7.14;85.38
75088;HTU21D;63664;44.868;40.600;2023-03-04T15:54:45;7.13;85.39
75088;HTU21D;63664;44.868;40.600;2023-03-04T15:57:22;7.10;85.45
75088;HTU21D;63664;44.868;40.600;2023-03-04T15:59:50;7.10;85.46
75088;HTU21D;63664;44.868;40.600;2023-03-04T16:02:24;7.08;85.66
75088;HTU21D;63664;44.868;40.600;2023-03-04T16:04:55;7.05;85.65
75088;HTU21D;63664;44.868;40.600;2023-03-04T16:07:27;7.03;85.67
75088;HTU21D;63664;44.868;40.600;2023-03-04T16:10:00;7.01;85.68
75088;HTU21D;63664;44.868;40.600;2023-03-04T16:12:32;6.99;85.69
75088;HTU21D;63664;44.868;40.600;2023-03-04T16:15:01;6.98;85.70
75088;HTU21D;63664;44.868;40.600;2023-03-04T16:17:30;6.96;85.75
75088;HTU21D;63664;44.868;40.600;2023-03-04T16:19:56;6.93;85.83
75088;HTU21D;63664;44.868;40.600;2023-03-04T16:22:27;6.90;85.90
75088;HTU21D;63664;44.868;40.600;2023-03-04T16:24:56;6.87;85.95
75088;HTU21D;63664;44.868;40.600;2023-03-04T16:27:26;6.85;86.01
75088;HTU21D;63664;44.868;40.600;2023-03-04T16:29:52;6.85;86.05
75088;HTU21D;63664;44.868;40.600;2023-03-04T16:32:21;6.83;86.07
75088;HTU21D;63664;44.868;40.600;2023-03-04T16:34:52;6.84;86.09
75088;HTU21D;63664;44.868;40.600;2023-03-04T16:37:19;6.82;86.10
75088;HTU21D;63664;44.868;40.600;2023-03-04T16:39:48;6.81;86.15
75088;HTU21D;63664;44.868;40.600;2023-03-04T16:42:18;6.80;86.17
75088;HTU21D;63664;44.868;40.600;2023-03-04T16:44:52;6.79;86.18
75088;HTU21D;63664;44.868;40.600;2023-03-04T16:47:21;6.79;86.22
75088;HTU21D;63664;44.868;40.600;2023-03-04T16:49:49;6.78;86.21
75088;HTU21D;63664;44.868;40.600;2023-03-04T16:52:33;6.76;86.29
75088;HTU21D;63664;44.868;40.600;2023-03-04T16:55:00;6.75;86.22
75088;HTU21D;63664;44.868;40.600;2023-03-04T16:57:31;6.75;86.21
75088;HTU21D;63664;44.868;40.600;2023-03-04T16:59:58;6.74;86.27
75088;HTU21D;63664;44.868;40.600;2023-03-04T17:02:31;6.72;86.30
75088;HTU21D;63664;44.868;40.600;2023-03-04T17:04:57;6.70;86.40
75088;HTU21D;63664;44.868;40.600;2023-03-04T17:07:24;6.69;86.42
75088;HTU21D;63664;44.868;40.600;2023-03-04T17:09:56;6.67;86.45
75088;HTU21D;63664;44.868;40.600;2023-03-04T17:12:22;6.67;86.47
75088;HTU21D;63664;44.868;40.600;2023-03-04T17:14:51;6.67;86.51
75088;HTU21D;63664;44.868;40.600;2023-03-04T17:17:17;6.67;86.52
75088;HTU21D;63664;44.868;40.600;2023-03-04T17:19:46;6.66;86.55
75088;HTU21D;63664;44.868;40.600;2023-03-04T17:22:15;6.65;86.60
75088;HTU21D;63664;44.868;40.600;2023-03-04T17:24:46;6.65;86.60
75088;HTU21D;63664;44.868;40.600;2023-03-04T17:27:15;6.64;86.62
75088;HTU21D;63664;44.868;40.600;2023-03-04T17:29:41;6.63;86.65
75088;HTU21D;63664;44.868;40.600;2023-03-04T17:32:08;6.64;86.68
75088;HTU21D;63664;44.868;40.600;2023-03-04T17:34:34;6.63;86.70
75088;HTU21D;63664;44.868;40.600;2023-03-04T17:37:03;6.63;86.75